Terminal Aerodrome Forecast
Issued by NWS North Platte, NE

Home | Current Version | Previous Version | Text Only | Print | Product List | Glossary Off
Versions: 1 2 3 4 5 6 7 8 9 10 11 12 13 14 15 16 17 18

782
FTUS43 KLBF 301502 AAC
TAFVTN
TAF AMD
KVTN 301502Z 3015/3112 12006KT P6SM OVC006
     FM301800 11004KT P6SM BKN015
     FM302000 10005KT P6SM SCT045
     FM310700 11006KT P6SM BKN050
     FM311000 10005KT P6SM BKN025=

USA.gov is the U.S. government's official web portal to all federal, state and local government web resources and services.